ZPPP/KMG METAR and TAF weather

Enter ICAO airport designator
Station Type Date Time Source
ZPPP METAR 2020/07/12 03:00 UTC NOAA

ZPPP 120300Z 21004MPS 9999 FEW026 OVC046 19/17 Q1015 NOSIG


Station Type Date Time Source
ZPPP Decoded METAR 2020/07/12 03:00 UTC NOAA

Kunming, China (ZPPP) 25-01N 102-41E 1892M
Jul 11, 2020 - 11:00 PM EDT / 2020.07.12 0300 UTC
Wind: from the SSW (210 degrees) at 9 MPH (8 KT):0
Visibility: greater than 7 mile(s):0
Sky conditions: overcast
Temperature: 66 F (19 C)
Dew Point: 62 F (17 C)
Relative Humidity: 88%
Pressure (altimeter): 29.97 in. Hg (1015 hPa)
ob: ZPPP 120300Z 21004MPS 9999 FEW026 OVC046 19/17 Q1015 NOSIG
cycle: 3

Station Type Date Time Source
ZPPP TAF 2020/07/11 18:03 UTC NOAA

TAF ZPPP 111506Z 1118/1218 23007MPS 9999 SCT023 BKN033 TX24/1208Z TN17/1123Z
TEMPO 1212/1214 SHRA FEW023CB SCT023 BKN033

Example: see airport list